Terminal Aerodrome Forecast
Issued by NWS San Angelo, TX

Home | Current Version | Previous Version | Text Only | Print | Product List | Glossary On
Versions: 1 2 3 4 5 6 7 8 9 10 11 12 13 14
000
FTUS44 KSJT 041120
TAFSJT
TAF
KSJT 041120Z 0412/0512 18007KT P6SM SCT250
     FM041800 17010G15KT P6SM SCT250
     FM042200 16008KT P6SM SCT250=

USA.gov is the U.S. government's official web portal to all federal, state and local government web resources and services.